Pakpattan Weather



Pakpattan's Current Weather

Temprature 39.22o broken clouds

broken clouds

Rain: 0 %

Min Temprature39.22o
Max Temprature39.22o
Humidity35
Wind Speed2.02 m/h
Sun Rise05:19:46
Sun Set19:05:50
Current Time: 24-Jul-2021 16:39:32
Lat/Lon: 30.341, 73.3866




Pakpattan's Geo Location



Pakpattan's Weather Forecast

Time Overall Temp Min Temp Max Temp Humidity Wind Speed Rain
24-Jul-2021 (Sat)
17:00:00 broken clouds 39.220 39.220 39.220 35 2.02 m/h 0 %
20:00:00 broken clouds 38.580 37.290 38.580 37 2.18 m/h 0 %
23:00:00 scattered clouds 37.040 35.950 37.040 41 2.65 m/h 0 %
25-Jul-2021 (Sun)
02:00:00 scattered clouds 34.980 34.980 34.980 48 2.53 m/h 0 %
05:00:00 scattered clouds 34.120 34.120 34.120 50 2.17 m/h 0 %
08:00:00 scattered clouds 37.580 37.580 37.580 40 2.35 m/h 0 %
11:00:00 few clouds 41.210 41.210 41.210 30 2.69 m/h 0 %
14:00:00 broken clouds 43.020 43.020 43.020 26 3.91 m/h 0 %
17:00:00 broken clouds 42.860 42.860 42.860 25 2.75 m/h 0 %
20:00:00 broken clouds 39.810 39.810 39.810 32 4.2 m/h 0 %
23:00:00 broken clouds 37.630 37.630 37.630 40 4.95 m/h 0 %
26-Jul-2021 (Mon)
02:00:00 overcast clouds 36.720 36.720 36.720 43 4.56 m/h 0 %
05:00:00 overcast clouds 35.660 35.660 35.660 45 3.83 m/h 0 %
08:00:00 broken clouds 37.200 37.200 37.200 41 5.49 m/h 0 %
11:00:00 broken clouds 39.930 39.930 39.930 34 4.22 m/h 0 %
14:00:00 overcast clouds 40.420 40.420 40.420 34 6.69 m/h 0 %
17:00:00 overcast clouds 39.300 39.300 39.300 35 7.68 m/h 0 %
20:00:00 light rain 37.410 37.410 37.410 39 5.02 m/h 24 %
23:00:00 overcast clouds 36.420 36.420 36.420 41 6.84 m/h 0 %
27-Jul-2021 (Tue)
02:00:00 overcast clouds 33.870 33.870 33.870 47 8.39 m/h 0 %
05:00:00 overcast clouds 31.330 31.330 31.330 60 7.35 m/h 0 %
08:00:00 overcast clouds 31.290 31.290 31.290 61 6.63 m/h 0 %
11:00:00 overcast clouds 35.050 35.050 35.050 46 6.39 m/h 0 %
14:00:00 broken clouds 38.260 38.260 38.260 38 5.76 m/h 0 %
17:00:00 broken clouds 37.290 37.290 37.290 40 7.07 m/h 0 %
20:00:00 overcast clouds 33.840 33.840 33.840 50 6.73 m/h 0 %
23:00:00 overcast clouds 31.820 31.820 31.820 58 6.53 m/h 0 %
28-Jul-2021 (Wed)
02:00:00 overcast clouds 30.230 30.230 30.230 64 4.99 m/h 0 %
05:00:00 broken clouds 29.700 29.700 29.700 68 4.15 m/h 0 %
08:00:00 light rain 31.040 31.040 31.040 64 5.22 m/h 11 %
11:00:00 overcast clouds 33.820 33.820 33.820 53 4.33 m/h 0 %
14:00:00 overcast clouds 32.320 32.320 32.320 60 5.97 m/h 0 %
17:00:00 overcast clouds 30.490 30.490 30.490 67 5.79 m/h 0 %
20:00:00 overcast clouds 28.970 28.970 28.970 76 5.49 m/h 0 %
23:00:00 overcast clouds 28.780 28.780 28.780 77 3.61 m/h 0 %
29-Jul-2021 (Thu)
02:00:00 overcast clouds 28.570 28.570 28.570 77 3.18 m/h 0 %
05:00:00 overcast clouds 28.380 28.380 28.380 78 2.52 m/h 0 %
08:00:00 broken clouds 31.780 31.780 31.780 61 2.51 m/h 0 %
11:00:00 broken clouds 36.420 36.420 36.420 45 2.08 m/h 0 %
14:00:00 light rain 36.470 36.470 36.470 44 1.14 m/h 87 %

Famous Cities (60)